sensor_id;sensor_type;location;lat;lon;timestamp;pressure;altitude;pressure_sealevel;temperature;humidity
13968;BME280;39536;52.198;9.920;2024-02-14T00:02:06;100797.66;;;8.40;100.00
13968;BME280;39536;52.198;9.920;2024-02-14T00:04:32;100796.66;;;8.47;100.00
13968;BME280;39536;52.198;9.920;2024-02-14T00:06:59;100797.41;;;8.52;100.00
13968;BME280;39536;52.198;9.920;2024-02-14T00:09:26;100796.66;;;8.47;100.00
13968;BME280;39536;52.198;9.920;2024-02-14T00:11:52;100791.31;;;8.53;100.00
13968;BME280;39536;52.198;9.920;2024-02-14T00:14:19;100798.25;;;8.53;100.00
13968;BME280;39536;52.198;9.920;2024-02-14T00:16:47;100801.75;;;8.52;100.00
13968;BME280;39536;52.198;9.920;2024-02-14T00:19:14;100789.88;;;8.37;100.00
13968;BME280;39536;52.198;9.920;2024-02-14T00:21:40;100795.94;;;8.39;100.00
13968;BME280;39536;52.198;9.920;2024-02-14T00:24:07;100788.00;;;8.47;100.00
13968;BME280;39536;52.198;9.920;2024-02-14T00:26:34;100794.00;;;8.50;100.00
13968;BME280;39536;52.198;9.920;2024-02-14T00:29:01;100793.91;;;8.53;100.00
13968;BME280;39536;52.198;9.920;2024-02-14T00:31:27;100787.81;;;8.58;100.00
13968;BME280;39536;52.198;9.920;2024-02-14T00:33:56;100788.72;;;8.55;100.00
13968;BME280;39536;52.198;9.920;2024-02-14T00:36:23;100786.19;;;8.52;100.00
13968;BME280;39536;52.198;9.920;2024-02-14T00:38:49;100787.88;;;8.53;100.00
13968;BME280;39536;52.198;9.920;2024-02-14T00:41:16;100781.03;;;8.50;100.00
13968;BME280;39536;52.198;9.920;2024-02-14T00:43:43;100781.22;;;8.40;100.00
13968;BME280;39536;52.198;9.920;2024-02-14T00:46:14;100779.47;;;8.42;100.00
13968;BME280;39536;52.198;9.920;2024-02-14T00:48:41;100770.94;;;8.33;100.00
13968;BME280;39536;52.198;9.920;2024-02-14T00:51:09;100774.28;;;8.42;100.00
13968;BME280;39536;52.198;9.920;2024-02-14T00:53:36;100775.97;;;8.44;100.00
13968;BME280;39536;52.198;9.920;2024-02-14T00:56:03;100776.22;;;8.29;100.00
13968;BME280;39536;52.198;9.920;2024-02-14T00:58:29;100767.50;;;8.33;100.00
13968;BME280;39536;52.198;9.920;2024-02-14T01:00:56;100762.19;;;8.38;100.00
13968;BME280;39536;52.198;9.920;2024-02-14T01:03:23;100759.63;;;8.39;100.00
13968;BME280;39536;52.198;9.920;2024-02-14T01:05:50;100755.22;;;8.43;100.00
13968;BME280;39536;52.198;9.920;2024-02-14T01:08:17;100753.47;;;8.43;100.00
13968;BME280;39536;52.198;9.920;2024-02-14T01:10:44;100745.69;;;8.43;100.00
13968;BME280;39536;52.198;9.920;2024-02-14T01:13:12;100739.69;;;8.41;100.00
13968;BME280;39536;52.198;9.920;2024-02-14T01:15:38;100733.59;;;8.42;100.00
13968;BME280;39536;52.198;9.920;2024-02-14T01:18:05;100736.19;;;8.42;100.00
13968;BME280;39536;52.198;9.920;2024-02-14T01:20:31;100733.59;;;8.41;100.00
13968;BME280;39536;52.198;9.920;2024-02-14T01:22:58;100730.88;;;8.48;100.00
13968;BME280;39536;52.198;9.920;2024-02-14T01:25:26;100719.69;;;8.45;100.00
13968;BME280;39536;52.198;9.920;2024-02-14T01:27:52;100725.75;;;8.44;100.00
13968;BME280;39536;52.198;9.920;2024-02-14T01:30:19;100720.56;;;8.45;100.00
13968;BME280;39536;52.198;9.920;2024-02-14T01:32:46;100723.25;;;8.38;100.00
13968;BME280;39536;52.198;9.920;2024-02-14T01:35:12;100711.25;;;8.33;100.00
13968;BME280;39536;52.198;9.920;2024-02-14T01:37:39;100713.75;;;8.40;100.00
13968;BME280;39536;52.198;9.920;2024-02-14T01:40:06;100712.91;;;8.39;100.00
13968;BME280;39536;52.198;9.920;2024-02-14T01:42:34;100710.25;;;8.41;100.00
13968;BME280;39536;52.198;9.920;2024-02-14T01:45:01;100707.63;;;8.42;100.00
13968;BME280;39536;52.198;9.920;2024-02-14T01:47:28;100703.28;;;8.43;100.00
13968;BME280;39536;52.198;9.920;2024-02-14T01:49:55;100700.75;;;8.41;100.00
13968;BME280;39536;52.198;9.920;2024-02-14T01:52:22;100700.75;;;8.41;100.00
13968;BME280;39536;52.198;9.920;2024-02-14T01:54:49;100694.59;;;8.44;100.00
13968;BME280;39536;52.198;9.920;2024-02-14T01:57:15;100695.44;;;8.46;100.00
13968;BME280;39536;52.198;9.920;2024-02-14T01:59:43;100695.50;;;8.43;100.00
13968;BME280;39536;52.198;9.920;2024-02-14T02:02:10;100693.84;;;8.37;100.00
13968;BME280;39536;52.198;9.920;2024-02-14T02:04:37;100685.19;;;8.41;100.00
13968;BME280;39536;52.198;9.920;2024-02-14T02:07:04;100684.16;;;8.47;100.00
13968;BME280;39536;52.198;9.920;2024-02-14T02:09:31;100680.84;;;8.42;100.00
13968;BME280;39536;52.198;9.920;2024-02-14T02:11:59;100671.19;;;8.47;100.00
13968;BME280;39536;52.198;9.920;2024-02-14T02:14:26;100671.91;;;8.53;100.00
13968;BME280;39536;52.198;9.920;2024-02-14T02:16:54;100674.69;;;8.46;100.00
13968;BME280;39536;52.198;9.920;2024-02-14T02:19:21;100664.22;;;8.50;100.00
13968;BME280;39536;52.198;9.920;2024-02-14T02:21:47;100671.09;;;8.51;100.00
13968;BME280;39536;52.198;9.920;2024-02-14T02:24:15;100669.22;;;8.56;100.00
13968;BME280;39536;52.198;9.920;2024-02-14T02:26:43;100656.56;;;8.43;100.00
13968;BME280;39536;52.198;9.920;2024-02-14T02:29:10;100661.44;;;8.56;100.00
13968;BME280;39536;52.198;9.920;2024-02-14T02:31:36;100655.38;;;8.58;100.00
13968;BME280;39536;52.198;9.920;2024-02-14T02:34:03;100651.00;;;8.60;100.00
13968;BME280;39536;52.198;9.920;2024-02-14T02:36:30;100648.41;;;8.60;100.00
13968;BME280;39536;52.198;9.920;2024-02-14T02:38:56;100649.41;;;8.54;100.00
13968;BME280;39536;52.198;9.920;2024-02-14T02:41:26;100645.13;;;8.51;100.00
13968;BME280;39536;52.198;9.920;2024-02-14T02:43:53;100640.53;;;8.64;100.00
13968;BME280;39536;52.198;9.920;2024-02-14T02:46:20;100639.59;;;8.67;100.00
13968;BME280;39536;52.198;9.920;2024-02-14T02:48:47;100643.00;;;8.69;100.00
13968;BME280;39536;52.198;9.920;2024-02-14T02:51:16;100625.66;;;8.71;100.00
13968;BME280;39536;52.198;9.920;2024-02-14T02:53:42;100626.47;;;8.73;100.00
13968;BME280;39536;52.198;9.920;2024-02-14T02:56:09;100624.03;;;8.67;100.00
13968;BME280;39536;52.198;9.920;2024-02-14T02:58:38;100621.44;;;8.65;100.00
13968;BME280;39536;52.198;9.920;2024-02-14T03:01:07;100610.06;;;8.71;100.00
13968;BME280;39536;52.198;9.920;2024-02-14T03:03:34;100610.91;;;8.71;100.00
13968;BME280;39536;52.198;9.920;2024-02-14T03:06:01;100612.72;;;8.69;100.00
13968;BME280;39536;52.198;9.920;2024-02-14T03:08:28;100612.63;;;8.72;100.00
13968;BME280;39536;52.198;9.920;2024-02-14T03:10:55;100610.22;;;8.65;100.00
13968;BME280;39536;52.198;9.920;2024-02-14T03:13:24;100606.72;;;8.66;100.00
13968;BME280;39536;52.198;9.920;2024-02-14T03:15:53;100604.03;;;8.69;100.00
13968;BME280;39536;52.198;9.920;2024-02-14T03:18:23;100605.00;;;8.65;100.00
13968;BME280;39536;52.198;9.920;2024-02-14T03:20:50;100599.00;;;8.63;100.00
13968;BME280;39536;52.198;9.920;2024-02-14T03:23:19;100603.31;;;8.64;100.00
13968;BME280;39536;52.198;9.920;2024-02-14T03:25:45;100604.25;;;8.61;100.00
13968;BME280;39536;52.198;9.920;2024-02-14T03:28:12;100596.44;;;8.61;100.00
13968;BME280;39536;52.198;9.920;2024-02-14T03:30:38;100591.34;;;8.56;100.00
13968;BME280;39536;52.198;9.920;2024-02-14T03:33:06;100590.63;;;8.50;100.00
13968;BME280;39536;52.198;9.920;2024-02-14T03:35:34;100582.75;;;8.54;100.00
13968;BME280;39536;52.198;9.920;2024-02-14T03:38:01;100581.00;;;8.55;100.00
13968;BME280;39536;52.198;9.920;2024-02-14T03:40:28;100585.38;;;8.53;100.00
13968;BME280;39536;52.198;9.920;2024-02-14T03:42:55;100576.66;;;8.55;100.00
13968;BME280;39536;52.198;9.920;2024-02-14T03:45:22;100574.13;;;8.54;100.00
13968;BME280;39536;52.198;9.920;2024-02-14T03:47:48;100569.72;;;8.58;100.00
13968;BME280;39536;52.198;9.920;2024-02-14T03:50:16;100566.44;;;8.49;100.00
13968;BME280;39536;52.198;9.920;2024-02-14T03:52:43;100568.19;;;8.49;100.00
13968;BME280;39536;52.198;9.920;2024-02-14T03:55:10;100569.03;;;8.49;100.00
13968;BME280;39536;52.198;9.920;2024-02-14T03:57:38;100564.66;;;8.51;100.00
13968;BME280;39536;52.198;9.920;2024-02-14T04:00:06;100565.78;;;8.41;100.00
13968;BME280;39536;52.198;9.920;2024-02-14T04:02:35;100561.56;;;8.34;100.00
13968;BME280;39536;52.198;9.920;2024-02-14T04:05:02;100560.44;;;8.47;100.00
13968;BME280;39536;52.198;9.920;2024-02-14T04:07:30;100554.41;;;8.45;100.00
13968;BME280;39536;52.198;9.920;2024-02-14T04:09:56;100555.28;;;8.46;100.00
13968;BME280;39536;52.198;9.920;2024-02-14T04:12:23;100563.34;;;8.32;100.00
13968;BME280;39536;52.198;9.920;2024-02-14T04:14:50;100567.66;;;8.33;100.00
13968;BME280;39536;52.198;9.920;2024-02-14T04:17:16;100572.94;;;8.28;100.00
13968;BME280;39536;52.198;9.920;2024-02-14T04:19:43;100573.63;;;8.38;100.00
13968;BME280;39536;52.198;9.920;2024-02-14T04:22:10;100564.13;;;8.36;100.00
13968;BME280;39536;52.198;9.920;2024-02-14T04:24:38;100556.19;;;8.43;100.00
13968;BME280;39536;52.198;9.920;2024-02-14T04:27:05;100555.19;;;8.49;100.00
13968;BME280;39536;52.198;9.920;2024-02-14T04:29:31;100552.59;;;8.49;100.00
13968;BME280;39536;52.198;9.920;2024-02-14T04:31:58;100547.41;;;8.49;100.00
13968;BME280;39536;52.198;9.920;2024-02-14T04:34:25;100552.56;;;8.50;100.00
13968;BME280;39536;52.198;9.920;2024-02-14T04:36:52;100546.44;;;8.53;100.00
13968;BME280;39536;52.198;9.920;2024-02-14T04:39:18;100541.91;;;8.61;100.00
13968;BME280;39536;52.198;9.920;2024-02-14T04:41:46;100543.69;;;8.59;100.00
13968;BME280;39536;52.198;9.920;2024-02-14T04:44:15;100543.00;;;8.52;100.00
13968;BME280;39536;52.198;9.920;2024-02-14T04:46:41;100548.41;;;8.43;100.00
13968;BME280;39536;52.198;9.920;2024-02-14T04:49:09;100550.25;;;8.37;100.00
13968;BME280;39536;52.198;9.920;2024-02-14T04:51:35;100542.28;;;8.46;100.00
13968;BME280;39536;52.198;9.920;2024-02-14T04:54:02;100544.19;;;8.39;100.00
13968;BME280;39536;52.198;9.920;2024-02-14T04:56:31;100546.63;;;8.45;100.00
13968;BME280;39536;52.198;9.920;2024-02-14T04:58:58;100543.06;;;8.49;100.00
13968;BME280;39536;52.198;9.920;2024-02-14T05:01:25;100537.66;;;8.59;100.00
13968;BME280;39536;52.198;9.920;2024-02-14T05:03:51;100537.84;;;8.51;100.00
13968;BME280;39536;52.198;9.920;2024-02-14T05:06:18;100548.47;;;8.40;100.00
13968;BME280;39536;52.198;9.920;2024-02-14T05:08:45;100537.28;;;8.37;100.00
13968;BME280;39536;52.198;9.920;2024-02-14T05:11:11;100545.84;;;8.42;100.00
13968;BME280;39536;52.198;9.920;2024-02-14T05:13:39;100551.09;;;8.37;100.00
13968;BME280;39536;52.198;9.920;2024-02-14T05:16:08;100549.22;;;8.45;100.00
13968;BME280;39536;52.198;9.920;2024-02-14T05:18:36;100549.09;;;8.50;100.00
13968;BME280;39536;52.198;9.920;2024-02-14T05:21:05;100548.81;;;8.62;100.00
13968;BME280;39536;52.198;9.920;2024-02-14T05:23:31;100545.28;;;8.65;100.00
13968;BME280;39536;52.198;9.920;2024-02-14T05:25:58;100544.66;;;8.55;100.00
13968;BME280;39536;52.198;9.920;2024-02-14T05:28:25;100544.38;;;8.67;100.00
13968;BME280;39536;52.198;9.920;2024-02-14T05:30:54;100537.34;;;8.72;100.00
13968;BME280;39536;52.198;9.920;2024-02-14T05:33:22;100542.53;;;8.71;100.00
13968;BME280;39536;52.198;9.920;2024-02-14T05:35:49;100537.41;;;8.69;100.00
13968;BME280;39536;52.198;9.920;2024-02-14T05:38:16;100548.63;;;8.70;100.00
13968;BME280;39536;52.198;9.920;2024-02-14T05:40:44;100545.81;;;8.79;100.00
13968;BME280;39536;52.198;9.920;2024-02-14T05:43:11;100542.47;;;8.74;100.00
13968;BME280;39536;52.198;9.920;2024-02-14T05:45:37;100536.44;;;8.73;100.00
13968;BME280;39536;52.198;9.920;2024-02-14T05:48:05;100542.44;;;8.75;100.00
13968;BME280;39536;52.198;9.920;2024-02-14T05:50:33;100545.03;;;8.75;100.00
13968;BME280;39536;52.198;9.920;2024-02-14T05:53:00;100548.34;;;8.82;100.00
13968;BME280;39536;52.198;9.920;2024-02-14T05:55:27;100547.44;;;8.83;100.00
13968;BME280;39536;52.198;9.920;2024-02-14T05:57:54;100543.06;;;8.85;100.00
13968;BME280;39536;52.198;9.920;2024-02-14T06:00:22;100545.75;;;8.82;100.00
13968;BME280;39536;52.198;9.920;2024-02-14T06:02:49;100548.28;;;8.84;100.00
13968;BME280;39536;52.198;9.920;2024-02-14T06:05:16;100536.28;;;8.78;100.00
13968;BME280;39536;52.198;9.920;2024-02-14T06:07:44;100532.63;;;8.87;100.00
13968;BME280;39536;52.198;9.920;2024-02-14T06:10:11;100539.56;;;8.86;100.00
13968;BME280;39536;52.198;9.920;2024-02-14T06:12:38;100536.88;;;8.89;100.00
13968;BME280;39536;52.198;9.920;2024-02-14T06:15:06;100536.81;;;8.92;100.00
13968;BME280;39536;52.198;9.920;2024-02-14T06:17:33;100541.84;;;8.98;100.00
13968;BME280;39536;52.198;9.920;2024-02-14T06:20:00;100538.56;;;8.92;100.00
13968;BME280;39536;52.198;9.920;2024-02-14T06:22:31;100530.69;;;8.95;100.00
13968;BME280;39536;52.198;9.920;2024-02-14T06:24:59;100542.69;;;8.99;100.00
13968;BME280;39536;52.198;9.920;2024-02-14T06:27:25;100543.13;;;8.82;100.00
13968;BME280;39536;52.198;9.920;2024-02-14T06:29:53;100542.94;;;8.90;100.00
13968;BME280;39536;52.198;9.920;2024-02-14T06:32:20;100544.22;;;8.73;100.00
13968;BME280;39536;52.198;9.920;2024-02-14T06:34:46;100549.66;;;8.63;100.00
13968;BME280;39536;52.198;9.920;2024-02-14T06:37:13;100537.97;;;8.81;100.00
13968;BME280;39536;52.198;9.920;2024-02-14T06:39:39;100548.50;;;8.74;100.00
13968;BME280;39536;52.198;9.920;2024-02-14T06:42:07;100544.06;;;8.79;100.00
13968;BME280;39536;52.198;9.920;2024-02-14T06:44:34;100545.69;;;8.84;100.00
13968;BME280;39536;52.198;9.920;2024-02-14T06:47:00;100558.72;;;8.82;100.00
13968;BME280;39536;52.198;9.920;2024-02-14T06:49:27;100553.78;;;8.71;100.00
13968;BME280;39536;52.198;9.920;2024-02-14T06:51:53;100551.81;;;8.81;100.00
13968;BME280;39536;52.198;9.920;2024-02-14T06:54:20;100551.25;;;8.70;100.00
13968;BME280;39536;52.198;9.920;2024-02-14T06:56:47;100554.91;;;8.61;100.00
13968;BME280;39536;52.198;9.920;2024-02-14T06:59:14;100560.94;;;8.63;100.00
13968;BME280;39536;52.198;9.920;2024-02-14T07:01:41;100564.00;;;8.77;100.00
13968;BME280;39536;52.198;9.920;2024-02-14T07:04:08;100556.38;;;8.71;100.00
13968;BME280;39536;52.198;9.920;2024-02-14T07:06:35;100554.69;;;8.70;100.00
13968;BME280;39536;52.198;9.920;2024-02-14T07:09:02;100558.34;;;8.62;100.00
13968;BME280;39536;52.198;9.920;2024-02-14T07:11:35;100556.34;;;8.73;100.00
13968;BME280;39536;52.198;9.920;2024-02-14T07:14:03;100557.91;;;8.80;100.00
13968;BME280;39536;52.198;9.920;2024-02-14T07:16:31;100561.56;;;8.73;100.00
13968;BME280;39536;52.198;9.920;2024-02-14T07:19:01;100558.97;;;8.71;100.00
13968;BME280;39536;52.198;9.920;2024-02-14T07:21:29;100553.84;;;8.68;100.00
13968;BME280;39536;52.198;9.920;2024-02-14T07:23:55;100562.47;;;8.70;100.00
13968;BME280;39536;52.198;9.920;2024-02-14T07:26:25;100566.84;;;8.68;100.00
13968;BME280;39536;52.198;9.920;2024-02-14T07:28:54;100559.19;;;8.64;100.00
13968;BME280;39536;52.198;9.920;2024-02-14T07:31:21;100573.00;;;8.64;100.00
13968;BME280;39536;52.198;9.920;2024-02-14T07:33:49;100567.69;;;8.69;100.00
13968;BME280;39536;52.198;9.920;2024-02-14T07:36:18;100575.47;;;8.69;100.00
13968;BME280;39536;52.198;9.920;2024-02-14T07:38:45;100578.81;;;8.75;100.00
13968;BME280;39536;52.198;9.920;2024-02-14T07:41:15;100585.72;;;8.75;100.00
13968;BME280;39536;52.198;9.920;2024-02-14T07:43:41;100579.38;;;8.87;100.00
13968;BME280;39536;52.198;9.920;2024-02-14T07:46:08;100583.66;;;8.88;100.00
13968;BME280;39536;52.198;9.920;2024-02-14T07:48:36;100594.88;;;8.91;100.00
13968;BME280;39536;52.198;9.920;2024-02-14T07:51:08;100577.06;;;8.76;100.00
13968;BME280;39536;52.198;9.920;2024-02-14T07:53:34;100591.38;;;8.91;100.00
13968;BME280;39536;52.198;9.920;2024-02-14T07:56:01;100601.13;;;8.83;100.00
13968;BME280;39536;52.198;9.920;2024-02-14T07:58:28;100596.72;;;8.86;100.00
13968;BME280;39536;52.198;9.920;2024-02-14T08:00:54;100597.00;;;8.75;100.00
13968;BME280;39536;52.198;9.920;2024-02-14T08:03:21;100600.31;;;8.81;100.00
13968;BME280;39536;52.198;9.920;2024-02-14T08:05:50;100593.44;;;8.78;100.00
13968;BME280;39536;52.198;9.920;2024-02-14T08:08:18;100591.59;;;8.83;100.00
13968;BME280;39536;52.198;9.920;2024-02-14T08:10:46;100587.44;;;8.76;100.00
13968;BME280;39536;52.198;9.920;2024-02-14T08:13:13;100604.78;;;8.74;100.00
13968;BME280;39536;52.198;9.920;2024-02-14T08:15:41;100603.72;;;8.83;100.00
13968;BME280;39536;52.198;9.920;2024-02-14T08:18:08;100597.59;;;8.85;100.00
13968;BME280;39536;52.198;9.920;2024-02-14T08:20:34;100600.09;;;8.90;100.00
13968;BME280;39536;52.198;9.920;2024-02-14T08:23:01;100604.53;;;8.85;100.00
13968;BME280;39536;52.198;9.920;2024-02-14T08:25:29;100600.06;;;8.91;100.00
13968;BME280;39536;52.198;9.920;2024-02-14T08:27:56;100601.94;;;8.85;100.00
13968;BME280;39536;52.198;9.920;2024-02-14T08:30:22;100608.63;;;8.95;100.00
13968;BME280;39536;52.198;9.920;2024-02-14T08:32:49;100613.69;;;8.99;100.00
13968;BME280;39536;52.198;9.920;2024-02-14T08:35:15;100608.31;;;9.07;100.00
13968;BME280;39536;52.198;9.920;2024-02-14T08:37:42;100615.97;;;9.12;100.00
13968;BME280;39536;52.198;9.920;2024-02-14T08:40:09;100610.88;;;9.09;100.00
13968;BME280;39536;52.198;9.920;2024-02-14T08:42:38;100621.19;;;9.12;100.00
13968;BME280;39536;52.198;9.920;2024-02-14T08:45:06;100613.38;;;9.12;100.00
13968;BME280;39536;52.198;9.920;2024-02-14T08:47:32;100615.97;;;9.12;100.00
13968;BME280;39536;52.198;9.920;2024-02-14T08:49:59;100623.69;;;9.16;100.00
13968;BME280;39536;52.198;9.920;2024-02-14T08:52:26;100618.50;;;9.15;100.00
13968;BME280;39536;52.198;9.920;2024-02-14T08:54:53;100621.78;;;9.21;100.00
13968;BME280;39536;52.198;9.920;2024-02-14T08:57:20;100612.00;;;9.31;100.00
13968;BME280;39536;52.198;9.920;2024-02-14T08:59:49;100613.91;;;9.24;100.00
13968;BME280;39536;52.198;9.920;2024-02-14T09:02:16;100622.47;;;9.30;100.00
13968;BME280;39536;52.198;9.920;2024-02-14T09:04:43;100624.91;;;9.36;100.00
13968;BME280;39536;52.198;9.920;2024-02-14T09:07:10;100629.56;;;9.23;100.00
13968;BME280;39536;52.198;9.920;2024-02-14T09:09:36;100631.25;;;9.24;100.00
13968;BME280;39536;52.198;9.920;2024-02-14T09:12:04;100632.31;;;9.17;100.00
13968;BME280;39536;52.198;9.920;2024-02-14T09:14:31;100636.47;;;9.24;100.00
13968;BME280;39536;52.198;9.920;2024-02-14T09:16:59;100633.47;;;9.39;100.00
13968;BME280;39536;52.198;9.920;2024-02-14T09:19:25;100638.38;;;9.50;100.00
13968;BME280;39536;52.198;9.920;2024-02-14T09:21:52;100652.53;;;9.40;100.00
13968;BME280;39536;52.198;9.920;2024-02-14T09:24:19;100629.78;;;9.48;100.00
13968;BME280;39536;52.198;9.920;2024-02-14T09:26:45;100638.19;;;9.58;100.00
13968;BME280;39536;52.198;9.920;2024-02-14T09:29:12;100639.03;;;9.58;100.00
13968;BME280;39536;52.198;9.920;2024-02-14T09:31:40;100641.44;;;9.66;100.00
13968;BME280;39536;52.198;9.920;2024-02-14T09:34:08;100650.81;;;9.71;100.00
13968;BME280;39536;52.198;9.920;2024-02-14T09:36:40;100653.53;;;9.67;100.00
13968;BME280;39536;52.198;9.920;2024-02-14T09:39:06;100650.78;;;9.73;100.00
13968;BME280;39536;52.198;9.920;2024-02-14T09:41:36;100647.94;;;9.82;100.00
13968;BME280;39536;52.198;9.920;2024-02-14T09:44:05;100651.31;;;9.84;100.00
13968;BME280;39536;52.198;9.920;2024-02-14T09:46:35;100655.47;;;9.91;100.00
13968;BME280;39536;52.198;9.920;2024-02-14T09:49:03;100644.66;;;10.05;100.00
13968;BME280;39536;52.198;9.920;2024-02-14T09:51:31;100648.81;;;10.12;100.00
13968;BME280;39536;52.198;9.920;2024-02-14T09:54:00;100653.97;;;10.14;100.00
13968;BME280;39536;52.198;9.920;2024-02-14T09:56:28;100647.75;;;10.18;100.00
13968;BME280;39536;52.198;9.920;2024-02-14T09:58:55;100661.19;;;10.04;100.00
13968;BME280;39536;52.198;9.920;2024-02-14T10:01:22;100664.56;;;10.08;100.00
13968;BME280;39536;52.198;9.920;2024-02-14T10:03:49;100667.25;;;10.05;100.00
13968;BME280;39536;52.198;9.920;2024-02-14T10:06:17;100670.31;;;10.19;100.00
13968;BME280;39536;52.198;9.920;2024-02-14T10:08:45;100664.31;;;10.15;100.00
13968;BME280;39536;52.198;9.920;2024-02-14T10:11:12;100675.44;;;10.22;100.00
13968;BME280;39536;52.198;9.920;2024-02-14T10:13:40;100682.13;;;10.31;100.00
13968;BME280;39536;52.198;9.920;2024-02-14T10:16:07;100691.78;;;10.27;100.00
13968;BME280;39536;52.198;9.920;2024-02-14T10:18:34;100690.91;;;10.28;100.00
13968;BME280;39536;52.198;9.920;2024-02-14T10:21:01;100687.06;;;10.40;100.00
13968;BME280;39536;52.198;9.920;2024-02-14T10:23:27;100699.97;;;10.45;100.00
13968;BME280;39536;52.198;9.920;2024-02-14T10:25:57;100701.56;;;10.50;100.00
13968;BME280;39536;52.198;9.920;2024-02-14T10:28:23;100698.19;;;10.47;100.00
13968;BME280;39536;52.198;9.920;2024-02-14T10:30:50;100706.28;;;10.36;100.00
13968;BME280;39536;52.198;9.920;2024-02-14T10:33:17;100709.00;;;10.33;100.00
13968;BME280;39536;52.198;9.920;2024-02-14T10:35:44;100714.59;;;10.49;100.00
13968;BME280;39536;52.198;9.920;2024-02-14T10:38:11;100713.41;;;10.59;100.00
13968;BME280;39536;52.198;9.920;2024-02-14T10:40:38;100705.09;;;10.48;100.00
13968;BME280;39536;52.198;9.920;2024-02-14T10:43:07;100711.97;;;10.50;100.00
13968;BME280;39536;52.198;9.920;2024-02-14T10:45:34;100715.06;;;10.63;100.00
13968;BME280;39536;52.198;9.920;2024-02-14T10:48:02;100715.56;;;10.74;100.00
13968;BME280;39536;52.198;9.920;2024-02-14T10:50:32;100716.22;;;10.81;100.00
13968;BME280;39536;52.198;9.920;2024-02-14T10:53:00;100714.50;;;10.81;100.00
13968;BME280;39536;52.198;9.920;2024-02-14T10:55:30;100720.22;;;10.93;100.00
13968;BME280;39536;52.198;9.920;2024-02-14T10:57:57;100722.97;;;10.88;100.00
13968;BME280;39536;52.198;9.920;2024-02-14T11:00:25;100724.25;;;11.03;100.00
13968;BME280;39536;52.198;9.920;2024-02-14T11:02:53;100725.97;;;11.04;100.00
13968;BME280;39536;52.198;9.920;2024-02-14T11:05:20;100717.22;;;11.05;100.00
13968;BME280;39536;52.198;9.920;2024-02-14T11:07:49;100714.81;;;10.99;100.00
13968;BME280;39536;52.198;9.920;2024-02-14T11:10:17;100714.72;;;11.02;100.00
13968;BME280;39536;52.198;9.920;2024-02-14T11:12:46;100717.00;;;11.13;100.00
13968;BME280;39536;52.198;9.920;2024-02-14T11:15:17;100714.69;;;11.03;100.00
13968;BME280;39536;52.198;9.920;2024-02-14T11:17:45;100723.25;;;11.07;100.00
13968;BME280;39536;52.198;9.920;2024-02-14T11:20:15;100727.66;;;11.05;100.00
13968;BME280;39536;52.198;9.920;2024-02-14T11:22:52;100732.88;;;11.05;100.00
13968;BME280;39536;52.198;9.920;2024-02-14T11:25:28;100733.59;;;11.10;100.00
13968;BME280;39536;52.198;9.920;2024-02-14T11:27:58;100732.38;;;11.20;100.00
13968;BME280;39536;52.198;9.920;2024-02-14T11:30:33;100735.16;;;11.16;100.00
13968;BME280;39536;52.198;9.920;2024-02-14T11:33:17;100738.25;;;11.27;100.00
13968;BME280;39536;52.198;9.920;2024-02-14T11:35:46;100741.47;;;11.35;100.00
13968;BME280;39536;52.198;9.920;2024-02-14T11:38:14;100736.25;;;11.35;100.00
13968;BME280;39536;52.198;9.920;2024-02-14T11:40:41;100743.13;;;11.38;100.00
13968;BME280;39536;52.198;9.920;2024-02-14T11:43:11;100734.97;;;11.22;100.00
13968;BME280;39536;52.198;9.920;2024-02-14T11:45:42;100744.22;;;11.30;100.00
13968;BME280;39536;52.198;9.920;2024-02-14T11:48:11;100741.06;;;11.21;100.00
13968;BME280;39536;52.198;9.920;2024-02-14T11:50:40;100738.22;;;11.28;100.00
13968;BME280;39536;52.198;9.920;2024-02-14T11:53:08;100737.22;;;11.32;100.00
13968;BME280;39536;52.198;9.920;2024-02-14T11:55:36;100740.09;;;11.23;100.00
13968;BME280;39536;52.198;9.920;2024-02-14T11:58:06;100734.78;;;11.26;100.00
13968;BME280;39536;52.198;9.920;2024-02-14T12:00:33;100737.50;;;11.23;100.00
13968;BME280;39536;52.198;9.920;2024-02-14T12:03:01;100732.38;;;11.20;100.00
13968;BME280;39536;52.198;9.920;2024-02-14T12:05:28;100734.69;;;11.29;100.00
13968;BME280;39536;52.198;9.920;2024-02-14T12:07:56;100743.16;;;11.36;100.00
13968;BME280;39536;52.198;9.920;2024-02-14T12:10:23;100742.28;;;11.37;100.00
13968;BME280;39536;52.198;9.920;2024-02-14T12:12:50;100743.34;;;11.31;100.00
13968;BME280;39536;52.198;9.920;2024-02-14T12:15:16;100755.13;;;11.15;100.00
13968;BME280;39536;52.198;9.920;2024-02-14T12:17:45;100748.03;;;11.20;100.00
13968;BME280;39536;52.198;9.920;2024-02-14T12:20:14;100757.34;;;11.27;100.00
13968;BME280;39536;52.198;9.920;2024-02-14T12:22:41;100752.84;;;11.32;100.00
13968;BME280;39536;52.198;9.920;2024-02-14T12:25:09;100755.44;;;11.34;100.00
13968;BME280;39536;52.198;9.920;2024-02-14T12:27:36;100759.34;;;11.47;100.00
13968;BME280;39536;52.198;9.920;2024-02-14T12:30:04;100761.19;;;11.44;100.00
13968;BME280;39536;52.198;9.920;2024-02-14T12:32:30;100747.19;;;11.46;100.00
13968;BME280;39536;52.198;9.920;2024-02-14T12:35:01;100758.28;;;11.53;100.00
13968;BME280;39536;52.198;9.920;2024-02-14T12:37:31;100755.81;;;11.48;100.00
13968;BME280;39536;52.198;9.920;2024-02-14T12:39:57;100752.41;;;11.46;100.00
13968;BME280;39536;52.198;9.920;2024-02-14T12:42:25;100746.13;;;11.52;100.00
13968;BME280;39536;52.198;9.920;2024-02-14T12:44:54;100753.38;;;11.44;100.00
13968;BME280;39536;52.198;9.920;2024-02-14T12:47:21;100755.97;;;11.44;100.00
13968;BME280;39536;52.198;9.920;2024-02-14T12:49:47;100752.78;;;11.62;100.00